Time;durP1;ratioP1;P1;durP2;ratioP2;P2;SDS_P1;SDS_P2;PMS_P1;PMS_P2;Temp;Humidity;BMP_temperature;BMP_pressure;BME280_temperature;BME280_humidity;BME280_pressure;Samples;Min_cycle;Max_cycle;Signal;HPM_P1;HPM_P2
2023/04/08 00:01:21;;;;;;;15.73;13.10;;;;;;;;;;5003537;28;20180;-86
2023/04/08 00:03:49;;;;;;;14.33;12.63;;;;;;;;;;4998213;28;20219;-87
2023/04/08 00:06:15;;;;;;;16.47;13.53;;;;;;;;;;5012950;28;20203;-87
2023/04/08 00:08:42;;;;;;;16.33;13.37;;;;;;;;;;5015120;28;20184;-86
2023/04/08 00:11:10;;;;;;;17.70;14.50;;;;;;;;;;5004504;28;20189;-86
2023/04/08 00:13:40;;;;;;;16.10;14.07;;;;;;;;;;5017374;28;20214;-87
2023/04/08 00:16:06;;;;;;;15.87;14.17;;;;;;;;;;5019915;28;20219;-87
2023/04/08 00:18:32;;;;;;;17.77;15.80;;;;;;;;;;5019544;28;20253;-87
2023/04/08 00:20:59;;;;;;;17.97;15.10;;;;;;;;;;5004182;28;20237;-86
2023/04/08 00:23:25;;;;;;;15.87;13.13;;;;;;;;;;5019187;28;20196;-86
2023/04/08 00:25:51;;;;;;;18.13;14.67;;;;;;;;;;5019789;28;20215;-87
2023/04/08 00:28:20;;;;;;;22.47;16.67;;;;;;;;;;4999584;28;20181;-86
2023/04/08 00:30:50;;;;;;;19.23;17.07;;;;;;;;;;5000062;28;20252;-87
2023/04/08 00:33:18;;;;;;;18.80;15.67;;;;;;;;;;4986818;28;20213;-86
2023/04/08 00:35:45;;;;;;;20.37;16.60;;;;;;;;;;5007942;28;20189;-86
2023/04/08 00:38:11;;;;;;;21.97;17.03;;;;;;;;;;5001874;28;20177;-86
2023/04/08 00:40:37;;;;;;;20.67;16.53;;;;;;;;;;5000481;28;20181;-86
2023/04/08 00:43:03;;;;;;;18.67;15.50;;;;;;;;;;5000797;28;20192;-86
2023/04/08 00:45:30;;;;;;;19.53;16.00;;;;;;;;;;4999047;28;20193;-86
2023/04/08 00:47:56;;;;;;;16.90;14.63;;;;;;;;;;4999405;28;20324;-86
2023/04/08 00:50:25;;;;;;;16.83;14.57;;;;;;;;;;4999257;28;20191;-87
2023/04/08 00:52:51;;;;;;;17.47;15.30;;;;;;;;;;5010069;28;20229;-85
2023/04/08 00:55:17;;;;;;;21.60;16.27;;;;;;;;;;5008405;28;20199;-86
2023/04/08 00:57:43;;;;;;;17.87;15.70;;;;;;;;;;5003399;28;20212;-86
2023/04/08 01:00:12;;;;;;;18.83;15.73;;;;;;;;;;5017807;28;20177;-87
2023/04/08 01:02:58;;;;;;;18.07;15.37;;;;;;;;;;5001526;28;20203;-87
2023/04/08 01:05:24;;;;;;;18.80;15.00;;;;;;;;;;5018693;28;20287;-87
2023/04/08 01:07:50;;;;;;;17.60;15.07;;;;;;;;;;5014610;28;20212;-87
2023/04/08 01:10:28;;;;;;;17.37;15.17;;;;;;;;;;5012042;28;20192;-86
2023/04/08 01:12:59;;;;;;;16.67;14.50;;;;;;;;;;5006552;28;20215;-86
2023/04/08 01:15:26;;;;;;;16.77;13.80;;;;;;;;;;5018619;28;20181;-86
2023/04/08 01:17:56;;;;;;;16.23;14.17;;;;;;;;;;5017700;28;20189;-87
2023/04/08 01:20:24;;;;;;;18.17;15.40;;;;;;;;;;5005313;28;20181;-87
2023/04/08 01:22:50;;;;;;;17.60;14.93;;;;;;;;;;4999871;28;20189;-86
2023/04/08 01:25:21;;;;;;;17.87;14.80;;;;;;;;;;5001802;28;20196;-86
2023/04/08 01:27:48;;;;;;;17.63;15.03;;;;;;;;;;5018024;28;20193;-86
2023/04/08 01:30:15;;;;;;;18.37;14.83;;;;;;;;;;5014854;28;20197;-86
2023/04/08 01:32:43;;;;;;;16.33;13.90;;;;;;;;;;4997821;28;20259;-86
2023/04/08 01:35:10;;;;;;;18.37;14.53;;;;;;;;;;4998261;28;20272;-86
2023/04/08 01:37:39;;;;;;;19.87;15.00;;;;;;;;;;4997802;28;20189;-86
2023/04/08 01:40:07;;;;;;;18.90;14.57;;;;;;;;;;5014549;28;20211;-86
2023/04/08 01:42:36;;;;;;;17.77;14.43;;;;;;;;;;5010493;28;20196;-86
2023/04/08 01:45:03;;;;;;;16.60;14.10;;;;;;;;;;5004020;28;20207;-86
2023/04/08 01:47:31;;;;;;;16.50;13.90;;;;;;;;;;5013347;28;20228;-86
2023/04/08 01:50:00;;;;;;;18.10;14.37;;;;;;;;;;5015967;28;20183;-86
2023/04/08 01:52:28;;;;;;;17.33;14.80;;;;;;;;;;5017047;28;20266;-86
2023/04/08 01:54:54;;;;;;;15.63;13.70;;;;;;;;;;5012066;28;20272;-86
2023/04/08 01:57:24;;;;;;;15.83;13.73;;;;;;;;;;5017438;28;20223;-86
2023/04/08 01:59:51;;;;;;;15.00;13.00;;;;;;;;;;5008708;28;20184;-86
2023/04/08 02:02:19;;;;;;;17.80;12.73;;;;;;;;;;5008795;28;20196;-86
2023/04/08 02:04:45;;;;;;;14.17;12.23;;;;;;;;;;5012559;28;20275;-86
2023/04/08 02:07:12;;;;;;;14.43;12.43;;;;;;;;;;5002583;28;20236;-86
2023/04/08 02:09:38;;;;;;;13.17;11.60;;;;;;;;;;5014754;28;20189;-86
2023/04/08 02:12:09;;;;;;;13.43;12.03;;;;;;;;;;5013832;28;20197;-86
2023/04/08 02:14:35;;;;;;;12.30;10.97;;;;;;;;;;5016923;28;20193;-87
2023/04/08 02:17:08;;;;;;;14.00;11.87;;;;;;;;;;5015959;28;20231;-87
2023/04/08 02:19:55;;;;;;;12.17;10.97;;;;;;;;;;4999154;28;20193;-86
2023/04/08 02:22:50;;;;;;;16.80;11.00;;;;;;;;;;5014856;28;20181;-86
2023/04/08 02:25:17;;;;;;;12.33;11.00;;;;;;;;;;4998141;28;20205;-86
2023/04/08 02:27:50;;;;;;;12.67;11.00;;;;;;;;;;5016497;28;20188;-87
2023/04/08 02:30:16;;;;;;;12.23;11.00;;;;;;;;;;5002120;28;20196;-86
2023/04/08 02:32:49;;;;;;;12.90;10.73;;;;;;;;;;4996738;28;20300;-87
2023/04/08 02:35:16;;;;;;;13.17;11.10;;;;;;;;;;4997225;28;20177;-86
2023/04/08 02:37:42;;;;;;;12.63;11.30;;;;;;;;;;5008789;28;20188;-86
2023/04/08 02:40:25;;;;;;;12.67;11.00;;;;;;;;;;5005128;28;20264;-87
2023/04/08 02:42:51;;;;;;;11.90;10.70;;;;;;;;;;5011710;28;20180;-86
2023/04/08 02:45:24;;;;;;;12.50;11.30;;;;;;;;;;5017360;28;20194;-86
2023/04/08 02:47:51;;;;;;;13.00;11.00;;;;;;;;;;5015594;28;20228;-85
2023/04/08 02:50:17;;;;;;;12.63;11.30;;;;;;;;;;5005848;28;20193;-87
2023/04/08 02:52:43;;;;;;;13.63;11.30;;;;;;;;;;4997409;28;20212;-86
2023/04/08 02:55:10;;;;;;;12.20;10.90;;;;;;;;;;4997621;28;20181;-87
2023/04/08 02:57:39;;;;;;;12.33;10.70;;;;;;;;;;4996756;28;20205;-86
2023/04/08 03:00:08;;;;;;;13.73;11.03;;;;;;;;;;5004622;28;20190;-87
2023/04/08 03:02:34;;;;;;;10.33;9.30;;;;;;;;;;5005620;28;20181;-87
2023/04/08 03:05:00;;;;;;;12.00;9.77;;;;;;;;;;5009948;28;20189;-87
2023/04/08 03:07:31;;;;;;;11.97;10.03;;;;;;;;;;5021532;28;20268;-86
2023/04/08 03:09:57;;;;;;;11.63;9.80;;;;;;;;;;5009891;28;20247;-86
2023/04/08 03:12:23;;;;;;;11.67;10.47;;;;;;;;;;5000129;28;20204;-87
2023/04/08 03:14:52;;;;;;;10.83;9.73;;;;;;;;;;5013732;28;20311;-86
2023/04/08 03:17:18;;;;;;;12.93;11.63;;;;;;;;;;5000200;28;20197;-86
2023/04/08 03:19:44;;;;;;;13.70;11.87;;;;;;;;;;4992069;28;20276;-86
2023/04/08 03:22:10;;;;;;;15.53;11.87;;;;;;;;;;4989124;28;20193;-86
2023/04/08 03:24:37;;;;;;;13.80;11.90;;;;;;;;;;4988978;28;20200;-86
2023/04/08 03:27:03;;;;;;;10.50;9.43;;;;;;;;;;5014560;28;20197;-86
2023/04/08 03:29:29;;;;;;;10.90;9.50;;;;;;;;;;4999836;28;20197;-86
2023/04/08 03:31:55;;;;;;;10.83;9.73;;;;;;;;;;5004047;28;20192;-86
2023/04/08 03:34:24;;;;;;;10.37;8.57;;;;;;;;;;4996665;28;20185;-86
2023/04/08 03:36:50;;;;;;;10.97;9.83;;;;;;;;;;4997588;28;20181;-86
2023/04/08 03:39:16;;;;;;;10.27;8.00;;;;;;;;;;4998736;28;20212;-85
2023/04/08 03:41:44;;;;;;;10.27;8.80;;;;;;;;;;5011257;28;20219;-85
2023/04/08 03:44:11;;;;;;;13.10;9.07;;;;;;;;;;4996729;28;20173;-86
2023/04/08 03:46:37;;;;;;;8.70;7.77;;;;;;;;;;5000492;28;20185;-86
2023/04/08 03:49:03;;;;;;;11.53;9.13;;;;;;;;;;5001203;28;20209;-86
2023/04/08 03:51:29;;;;;;;10.10;8.90;;;;;;;;;;5014036;28;20222;-86
2023/04/08 03:53:55;;;;;;;9.23;7.93;;;;;;;;;;5005025;28;20262;-86
2023/04/08 03:56:21;;;;;;;9.93;8.13;;;;;;;;;;5003442;28;20186;-86
2023/04/08 03:58:47;;;;;;;9.87;8.10;;;;;;;;;;5006674;28;20181;-86
2023/04/08 04:01:15;;;;;;;9.07;8.17;;;;;;;;;;4995698;28;20188;-86
2023/04/08 04:03:42;;;;;;;12.10;10.47;;;;;;;;;;5007251;28;20192;-86
2023/04/08 04:06:08;;;;;;;13.23;11.37;;;;;;;;;;5011752;28;20185;-86
2023/04/08 04:08:34;;;;;;;13.57;11.57;;;;;;;;;;5009231;28;20189;-85
2023/04/08 04:11:02;;;;;;;13.93;11.87;;;;;;;;;;5009966;28;20185;-86
2023/04/08 04:13:29;;;;;;;14.67;11.97;;;;;;;;;;5004364;28;20300;-86
2023/04/08 04:15:56;;;;;;;16.90;13.20;;;;;;;;;;5014026;28;20177;-85
2023/04/08 04:18:25;;;;;;;16.17;14.40;;;;;;;;;;5009029;28;20185;-85
2023/04/08 04:20:51;;;;;;;17.73;15.00;;;;;;;;;;5004653;28;20193;-86
2023/04/08 04:23:17;;;;;;;17.53;14.87;;;;;;;;;;5003522;28;20212;-86
2023/04/08 04:25:43;;;;;;;18.67;14.73;;;;;;;;;;5005323;28;20189;-86
2023/04/08 04:28:12;;;;;;;17.67;15.73;;;;;;;;;;5003448;28;20184;-86
2023/04/08 04:30:39;;;;;;;22.33;18.00;;;;;;;;;;5005549;28;20186;-86
2023/04/08 04:33:06;;;;;;;21.20;17.57;;;;;;;;;;5008015;28;20247;-86
2023/04/08 04:35:32;;;;;;;19.57;16.97;;;;;;;;;;5005629;28;20186;-87
2023/04/08 04:37:58;;;;;;;22.20;18.77;;;;;;;;;;5002882;28;20182;-86
2023/04/08 04:40:24;;;;;;;24.90;19.80;;;;;;;;;;5003620;28;20599;-86
2023/04/08 04:42:50;;;;;;;21.67;18.70;;;;;;;;;;5007117;28;20191;-86
2023/04/08 04:45:19;;;;;;;21.20;18.40;;;;;;;;;;5003028;28;20217;-86
2023/04/08 04:47:50;;;;;;;20.50;18.30;;;;;;;;;;4997441;28;20236;-86
2023/04/08 04:50:16;;;;;;;20.97;17.47;;;;;;;;;;5014009;28;20188;-89
2023/04/08 04:52:42;;;;;;;21.77;18.33;;;;;;;;;;5001426;28;20213;-86
2023/04/08 04:55:08;;;;;;;22.37;18.33;;;;;;;;;;5007417;28;20190;-86
2023/04/08 04:57:35;;;;;;;21.77;18.57;;;;;;;;;;5004774;28;20232;-87
2023/04/08 05:00:03;;;;;;;21.87;18.20;;;;;;;;;;4999267;28;20205;-86
2023/04/08 05:02:29;;;;;;;21.73;18.43;;;;;;;;;;5007419;28;20185;-86
2023/04/08 05:04:55;;;;;;;22.63;19.40;;;;;;;;;;4998753;28;20188;-87
2023/04/08 05:07:21;;;;;;;23.27;19.80;;;;;;;;;;5017364;28;20193;-86
2023/04/08 05:09:47;;;;;;;22.10;19.40;;;;;;;;;;5004067;28;20200;-87
2023/04/08 05:12:14;;;;;;;25.60;20.70;;;;;;;;;;5005010;28;20201;-86
2023/04/08 05:14:41;;;;;;;25.07;20.83;;;;;;;;;;5007199;28;20181;-86
2023/04/08 05:17:07;;;;;;;25.57;21.70;;;;;;;;;;5008050;28;20177;-86
2023/04/08 05:19:33;;;;;;;25.23;21.00;;;;;;;;;;5008852;28;20207;-86
2023/04/08 05:21:59;;;;;;;26.90;22.27;;;;;;;;;;5005163;28;20177;-86
2023/04/08 05:24:25;;;;;;;26.63;21.63;;;;;;;;;;5007533;28;20327;-86
2023/04/08 05:26:52;;;;;;;26.00;21.30;;;;;;;;;;5006940;28;20191;-86
2023/04/08 05:29:20;;;;;;;27.73;22.30;;;;;;;;;;5013998;28;20193;-85
2023/04/08 05:31:47;;;;;;;26.30;21.13;;;;;;;;;;5009556;28;20177;-86
2023/04/08 05:34:14;;;;;;;28.20;22.70;;;;;;;;;;5009132;28;20203;-86
2023/04/08 05:36:42;;;;;;;27.33;22.07;;;;;;;;;;5009160;28;20186;-85
2023/04/08 05:39:09;;;;;;;26.33;22.33;;;;;;;;;;5007788;28;20173;-86
2023/04/08 05:41:37;;;;;;;27.50;22.17;;;;;;;;;;4996988;28;20283;-86
2023/04/08 05:44:05;;;;;;;26.70;21.53;;;;;;;;;;5004959;28;20185;-85
2023/04/08 05:46:32;;;;;;;27.60;22.83;;;;;;;;;;5010487;28;20182;-85
2023/04/08 05:48:58;;;;;;;27.67;23.43;;;;;;;;;;4996806;28;20227;-87
2023/04/08 05:51:24;;;;;;;29.10;23.87;;;;;;;;;;5008186;28;20183;-85
2023/04/08 05:53:52;;;;;;;29.33;23.70;;;;;;;;;;5000611;28;20281;-86
2023/04/08 05:56:19;;;;;;;31.33;24.07;;;;;;;;;;5001049;28;20169;-85
2023/04/08 05:58:45;;;;;;;32.37;25.00;;;;;;;;;;4990016;28;20243;-85
2023/04/08 06:01:13;;;;;;;28.23;23.87;;;;;;;;;;5016019;28;20181;-85
2023/04/08 06:03:39;;;;;;;29.13;24.23;;;;;;;;;;5009702;28;20184;-85
2023/04/08 06:06:17;;;;;;;29.87;24.90;;;;;;;;;;5016030;28;20185;-85
2023/04/08 06:08:43;;;;;;;31.57;24.53;;;;;;;;;;5005559;28;20237;-86
2023/04/08 06:11:12;;;;;;;27.03;22.40;;;;;;;;;;5007561;28;20177;-86
2023/04/08 06:13:41;;;;;;;25.63;22.63;;;;;;;;;;5008817;28;20224;-86
2023/04/08 06:16:11;;;;;;;26.37;22.10;;;;;;;;;;5007731;28;20245;-85
2023/04/08 06:18:37;;;;;;;24.67;21.83;;;;;;;;;;5007913;28;20192;-85
2023/04/08 06:21:04;;;;;;;26.70;21.80;;;;;;;;;;5014511;28;20172;-86
2023/04/08 06:23:30;;;;;;;26.47;22.37;;;;;;;;;;5008111;28;20192;-87
2023/04/08 06:25:58;;;;;;;23.70;20.33;;;;;;;;;;5012398;28;20210;-85
2023/04/08 06:28:25;;;;;;;25.03;20.37;;;;;;;;;;5005530;28;20181;-85
2023/04/08 06:30:51;;;;;;;23.63;21.07;;;;;;;;;;4998308;28;20192;-86
2023/04/08 06:33:19;;;;;;;22.80;20.33;;;;;;;;;;5015972;28;20211;-87
2023/04/08 06:35:45;;;;;;;24.50;20.60;;;;;;;;;;4999631;28;20181;-86
2023/04/08 06:38:11;;;;;;;24.77;20.83;;;;;;;;;;5009913;28;20177;-85
2023/04/08 06:40:43;;;;;;;22.93;19.77;;;;;;;;;;5011534;28;20178;-85
2023/04/08 06:43:09;;;;;;;21.67;19.37;;;;;;;;;;5009650;28;20236;-87
2023/04/08 06:45:35;;;;;;;18.00;15.77;;;;;;;;;;4997921;28;20183;-87
2023/04/08 06:48:05;;;;;;;17.50;15.57;;;;;;;;;;5007690;28;20308;-87
2023/04/08 06:50:31;;;;;;;15.77;13.43;;;;;;;;;;5000627;28;20177;-86
2023/04/08 06:52:57;;;;;;;14.83;13.27;;;;;;;;;;5009053;28;20254;-86
2023/04/08 06:55:26;;;;;;;14.87;13.43;;;;;;;;;;5012939;28;20235;-86
2023/04/08 06:57:55;;;;;;;16.30;12.60;;;;;;;;;;5005699;28;20192;-86
2023/04/08 07:00:27;;;;;;;16.73;13.10;;;;;;;;;;5012524;28;20181;-86
2023/04/08 07:02:53;;;;;;;14.37;12.57;;;;;;;;;;5005929;28;20172;-86
2023/04/08 07:05:19;;;;;;;14.97;12.13;;;;;;;;;;4997017;28;20189;-87
2023/04/08 07:07:48;;;;;;;16.73;13.10;;;;;;;;;;4997186;28;20185;-87
2023/04/08 07:10:14;;;;;;;13.63;12.30;;;;;;;;;;4997008;28;20193;-87
2023/04/08 07:12:40;;;;;;;16.53;13.40;;;;;;;;;;4996977;28;20209;-86
2023/04/08 07:15:09;;;;;;;15.20;13.57;;;;;;;;;;4981042;28;20181;-86
2023/04/08 07:17:35;;;;;;;16.97;12.47;;;;;;;;;;4997181;28;20277;-87
2023/04/08 07:20:01;;;;;;;15.90;13.23;;;;;;;;;;4995804;28;20185;-89
2023/04/08 07:22:27;;;;;;;13.07;11.77;;;;;;;;;;4996848;28;20181;-87
2023/04/08 07:24:59;;;;;;;15.33;12.00;;;;;;;;;;4980839;28;20276;-88
2023/04/08 07:27:46;;;;;;;13.17;11.87;;;;;;;;;;4996886;28;20268;-88
2023/04/08 07:30:24;;;;;;;;;;;;;;;;;;;;;
2023/04/08 07:32:58;;;;;;;13.57;11.10;;;;;;;;;;5014416;28;20217;-88
2023/04/08 07:35:24;;;;;;;11.73;10.53;;;;;;;;;;4998250;28;20181;-89
2023/04/08 07:37:53;;;;;;;13.13;11.47;;;;;;;;;;5010069;28;20182;-87
2023/04/08 07:40:20;;;;;;;11.83;10.57;;;;;;;;;;4997236;28;20227;-87
2023/04/08 07:42:46;;;;;;;11.13;9.93;;;;;;;;;;4996660;28;20181;-87
2023/04/08 07:45:14;;;;;;;10.67;9.67;;;;;;;;;;4996567;28;20200;-87
2023/04/08 07:47:41;;;;;;;11.47;10.27;;;;;;;;;;4996325;28;20228;-87
2023/04/08 07:50:07;;;;;;;13.37;10.20;;;;;;;;;;4996686;28;20180;-86
2023/04/08 07:52:36;;;;;;;13.07;9.43;;;;;;;;;;4996682;28;20266;-88
2023/04/08 07:55:12;;;;;;;;;;;;;;;;;;;;;
2023/04/08 07:57:38;;;;;;;11.00;9.27;;;;;;;;;;5012609;28;20209;-89
2023/04/08 08:00:08;;;;;;;11.23;10.00;;;;;;;;;;4996444;28;20178;-89
2023/04/08 08:02:37;;;;;;;12.03;10.73;;;;;;;;;;4995111;28;20189;-88
2023/04/08 08:05:03;;;;;;;10.90;9.80;;;;;;;;;;4995847;28;20227;-89
2023/04/08 08:07:37;;;;;;;12.13;10.00;;;;;;;;;;5008123;28;20188;-89
2023/04/08 08:10:09;;;;;;;10.80;9.80;;;;;;;;;;5016544;28;20184;-89
2023/04/08 08:12:42;;;;;;;12.97;9.37;;;;;;;;;;5000566;28;20216;-89
2023/04/08 08:18:03;;;;;;;10.40;9.40;;;;;;;;;;4953454;29;20315;-91
2023/04/08 08:20:29;;;;;;;10.70;9.60;;;;;;;;;;4938117;29;20242;-88
2023/04/08 08:23:29;;;;;;;11.77;9.83;;;;;;;;;;4937623;29;20203;-91
2023/04/08 08:26:02;;;;;;;10.60;9.37;;;;;;;;;;4937794;29;20191;-88
2023/04/08 08:28:34;;;;;;;12.43;9.77;;;;;;;;;;4949733;28;20276;-89
2023/04/08 08:31:28;;;;;;;;;;;;;;;;;;;;;
2023/04/08 08:37:06;;;;;;;10.27;9.23;;;;;;;;;;5002695;28;20185;-88
2023/04/08 08:39:32;;;;;;;10.83;9.73;;;;;;;;;;5000416;28;20178;-89
2023/04/08 08:41:58;;;;;;;11.00;9.50;;;;;;;;;;5000115;28;20182;-88
2023/04/08 08:44:27;;;;;;;11.13;10.03;;;;;;;;;;5001627;28;20181;-89
2023/04/08 08:46:53;;;;;;;12.67;10.37;;;;;;;;;;4999751;28;20186;-89
2023/04/08 08:49:19;;;;;;;10.67;9.67;;;;;;;;;;4999994;28;20190;-88
2023/04/08 08:51:49;;;;;;;10.40;9.40;;;;;;;;;;4999761;28;20231;-86
2023/04/08 08:54:15;;;;;;;8.73;7.93;;;;;;;;;;5015496;28;20213;-86
2023/04/08 08:56:42;;;;;;;9.10;8.20;;;;;;;;;;4999790;28;20331;-86
2023/04/08 08:59:10;;;;;;;8.07;7.30;;;;;;;;;;4999149;28;20180;-87
2023/04/08 09:01:40;;;;;;;9.00;8.00;;;;;;;;;;4999567;28;20177;-87
2023/04/08 09:04:21;;;;;;;;;;;;;;;;;;;;;
2023/04/08 09:13:01;;;;;;;8.60;7.80;;;;;;;;;;4979493;28;20282;-90
2023/04/08 09:15:32;;;;;;;7.70;7.00;;;;;;;;;;4999452;28;20177;-89
2023/04/08 09:18:12;;;;;;;8.60;7.80;;;;;;;;;;4984019;28;20185;-89
2023/04/08 09:24:09;;;;;;;8.47;7.67;;;;;;;;;;5016431;28;20242;-91
2023/04/08 09:30:04;;;;;;;9.27;7.57;;;;;;;;;;5016702;28;20168;-92
2023/04/08 09:32:56;;;;;;;7.80;7.10;;;;;;;;;;5006857;28;20284;-90
2023/04/08 09:35:32;;;;;;;9.23;7.80;;;;;;;;;;5001312;28;20240;-91
2023/04/08 09:38:07;;;;;;;9.40;7.90;;;;;;;;;;5019021;28;20176;-91
2023/04/08 09:40:39;;;;;;;8.27;7.57;;;;;;;;;;4999678;28;20196;-91
2023/04/08 09:43:19;;;;;;;8.20;7.50;;;;;;;;;;4998758;28;20185;-89
2023/04/08 09:45:49;;;;;;;8.30;7.53;;;;;;;;;;4999157;28;20181;-91
2023/04/08 09:48:49;;;;;;;8.30;7.50;;;;;;;;;;4999785;28;20255;-92
2023/04/08 09:51:17;;;;;;;8.63;7.77;;;;;;;;;;4999523;28;20193;-90
2023/04/08 09:54:03;;;;;;;8.93;8.13;;;;;;;;;;5006234;28;20229;-91
2023/04/08 09:56:51;;;;;;;8.00;7.00;;;;;;;;;;4998903;28;20184;-91
2023/04/08 09:59:27;;;;;;;9.00;8.20;;;;;;;;;;4997943;28;20181;-93
2023/04/08 10:02:19;;;;;;;9.83;8.10;;;;;;;;;;4998448;28;20181;-89
2023/04/08 10:04:48;;;;;;;9.47;8.60;;;;;;;;;;4992035;28;20556;-89
2023/04/08 10:07:25;;;;;;;9.57;8.67;;;;;;;;;;4998481;28;20253;-90
2023/04/08 10:13:09;;;;;;;9.43;8.63;;;;;;;;;;5018451;28;20216;-91
2023/04/08 10:18:31;;;;;;;10.40;9.40;;;;;;;;;;5002451;28;20177;-91
2023/04/08 10:21:21;;;;;;;10.53;9.53;;;;;;;;;;5017880;28;20184;-90
2023/04/08 10:27:11;;;;;;;;;;;;;;;;;;;;;
2023/04/08 10:29:51;;;;;;;10.60;9.70;;;;;;;;;;5030838;28;20200;-91
2023/04/08 10:32:40;;;;;;;12.93;10.13;;;;;;;;;;5034157;28;20179;-91
2023/04/08 10:35:43;;;;;;;;;;;;;;;;;;;;;
2023/04/08 10:38:50;;;;;;;10.73;9.23;;;;;;;;;;5031933;28;20195;-90
2023/04/08 10:41:26;;;;;;;9.93;9.03;;;;;;;;;;5033279;28;20429;-91
2023/04/08 10:44:08;;;;;;;10.32;9.32;;;;;;;;;;5016857;28;20425;-91
2023/04/08 10:46:43;;;;;;;10.37;9.40;;;;;;;;;;5016098;28;20420;-90
2023/04/08 10:51:55;;;;;;;10.40;9.50;;;;;;;;;;5034214;28;20409;-91
2023/04/08 10:54:29;;;;;;;10.00;9.00;;;;;;;;;;5016301;28;20433;-91
2023/04/08 10:56:58;;;;;;;9.80;8.80;;;;;;;;;;5012941;28;20493;-91
2023/04/08 10:59:40;;;;;;;9.18;8.38;;;;;;;;;;4996728;28;20407;-90
2023/04/08 11:02:06;;;;;;;9.50;8.70;;;;;;;;;;4996423;28;20407;-90
2023/04/08 11:04:50;;;;;;;9.27;8.40;;;;;;;;;;4996226;28;20442;-91
2023/04/08 11:07:16;;;;;;;8.95;8.15;;;;;;;;;;5011020;28;20414;-90
2023/04/08 11:09:42;;;;;;;9.15;8.25;;;;;;;;;;4997295;28;20438;-92
2023/04/08 11:12:08;;;;;;;8.23;7.53;;;;;;;;;;4997523;28;20177;-90
2023/04/08 11:14:37;;;;;;;8.50;7.70;;;;;;;;;;4996759;28;20403;-90
2023/04/08 11:17:04;;;;;;;7.83;7.13;;;;;;;;;;4997311;28;20249;-89
2023/04/08 11:19:35;;;;;;;8.03;7.23;;;;;;;;;;4997399;28;20181;-90
2023/04/08 11:22:02;;;;;;;8.60;7.40;;;;;;;;;;4997473;28;20323;-91
2023/04/08 11:24:28;;;;;;;8.40;7.10;;;;;;;;;;4997329;28;20173;-90
2023/04/08 11:27:25;;;;;;;8.87;7.23;;;;;;;;;;5005993;28;20336;-93
2023/04/08 11:33:36;;;;;;;;;;;;;;;;;;;;;
2023/04/08 11:36:20;;;;;;;8.25;7.45;;;;;;;;;;5028890;28;20504;-91
2023/04/08 11:52:15;;;;;;;8.90;7.85;;;;;;;;;;4897414;29;20419;-94
2023/04/08 11:55:06;;;;;;;8.45;7.72;;;;;;;;;;4892941;29;20443;-91
2023/04/08 12:00:39;;;;;;;8.70;7.95;;;;;;;;;;4954164;29;20501;-93
2023/04/08 12:03:06;;;;;;;8.98;8.18;;;;;;;;;;4954021;29;20419;-91
2023/04/08 12:05:41;;;;;;;9.07;8.23;;;;;;;;;;4928685;29;20429;-91
2023/04/08 12:08:13;;;;;;;8.77;7.73;;;;;;;;;;4953196;28;20413;-92
2023/04/08 12:10:42;;;;;;;9.40;8.40;;;;;;;;;;4983487;28;20415;-94
2023/04/08 12:13:18;;;;;;;9.55;8.65;;;;;;;;;;4999945;28;20495;-90
2023/04/08 12:16:13;;;;;;;8.98;8.10;;;;;;;;;;4975220;28;20423;-92
2023/04/08 12:21:34;;;;;;;8.60;7.23;;;;;;;;;;5009580;28;20178;-87
2023/04/08 12:24:01;;;;;;;8.03;7.20;;;;;;;;;;4981863;28;20182;-89
2023/04/08 12:26:36;;;;;;;8.20;7.50;;;;;;;;;;4997796;28;20181;-89
2023/04/08 12:29:08;;;;;;;8.13;7.27;;;;;;;;;;4994736;28;20174;-89
2023/04/08 12:31:34;;;;;;;8.53;7.60;;;;;;;;;;5000816;28;20247;-89
2023/04/08 12:40:08;;;;;;;8.23;7.53;;;;;;;;;;5004832;28;20183;-89
2023/04/08 12:42:34;;;;;;;9.93;7.95;;;;;;;;;;4994987;28;20454;-90
2023/04/08 12:45:00;;;;;;;10.07;9.18;;;;;;;;;;5015634;28;20419;-90
2023/04/08 12:47:29;;;;;;;52.42;12.80;;;;;;;;;;4988403;28;20417;-91
2023/04/08 12:49:55;;;;;;;9.50;8.50;;;;;;;;;;4982928;28;20510;-92
2023/04/08 12:52:21;;;;;;;11.73;9.00;;;;;;;;;;5016546;28;20415;-90
2023/04/08 12:54:50;;;;;;;10.73;9.57;;;;;;;;;;5017605;28;20626;-91
2023/04/08 12:57:17;;;;;;;9.80;8.80;;;;;;;;;;5012866;28;20421;-91
2023/04/08 12:59:43;;;;;;;9.93;9.02;;;;;;;;;;5016000;28;20419;-89
2023/04/08 13:02:11;;;;;;;10.27;9.27;;;;;;;;;;4999414;28;20429;-89
2023/04/08 13:04:38;;;;;;;9.82;8.93;;;;;;;;;;4999545;28;20482;-91
2023/04/08 13:07:27;;;;;;;9.97;8.97;;;;;;;;;;4999008;28;20462;-90
2023/04/08 13:09:53;;;;;;;10.30;9.40;;;;;;;;;;4998536;28;20411;-90
2023/04/08 13:12:22;;;;;;;10.13;9.18;;;;;;;;;;5000584;28;20442;-91
2023/04/08 13:18:09;;;;;;;10.35;9.27;;;;;;;;;;5034707;28;20446;-91
2023/04/08 13:20:35;;;;;;;10.43;9.45;;;;;;;;;;5003556;28;20417;-91
2023/04/08 13:23:01;;;;;;;9.90;9.00;;;;;;;;;;5016223;28;20424;-90
2023/04/08 13:25:27;;;;;;;10.40;9.43;;;;;;;;;;5017228;28;20539;-89
2023/04/08 13:27:54;;;;;;;10.30;9.30;;;;;;;;;;5034688;28;20567;-91
2023/04/08 13:30:23;;;;;;;10.73;9.73;;;;;;;;;;5018591;28;20496;-92
2023/04/08 13:32:55;;;;;;;9.63;8.83;;;;;;;;;;5018336;28;20461;-91
2023/04/08 13:35:31;;;;;;;9.82;8.93;;;;;;;;;;5017693;28;20409;-88
2023/04/08 13:37:57;;;;;;;10.25;9.35;;;;;;;;;;5033996;28;20441;-89
2023/04/08 13:49:55;;;;;;;12.38;11.18;;;;;;;;;;5016339;28;20389;-91
2023/04/08 13:52:31;;;;;;;;;;;;;;;;;;;;;
2023/04/08 13:55:00;;;;;;;11.30;10.30;;;;;;;;;;5030448;28;20441;-92
2023/04/08 14:00:37;;;;;;;12.10;11.00;;;;;;;;;;5027464;28;20416;-88
2023/04/08 14:03:03;;;;;;;13.02;11.82;;;;;;;;;;5005336;28;20411;-89
2023/04/08 14:05:45;;;;;;;12.95;11.77;;;;;;;;;;5004780;28;20423;-90
2023/04/08 14:08:12;;;;;;;12.93;11.82;;;;;;;;;;5000681;28;20514;-88
2023/04/08 14:10:41;;;;;;;14.45;13.15;;;;;;;;;;5007964;28;20491;-88
2023/04/08 14:13:07;;;;;;;14.48;13.18;;;;;;;;;;5008202;28;20437;-89
2023/04/08 14:15:36;;;;;;;15.40;14.00;;;;;;;;;;5004878;28;21780;-90
2023/04/08 14:18:02;;;;;;;15.80;14.30;;;;;;;;;;5027166;28;20407;-88
2023/04/08 14:20:31;;;;;;;15.97;14.47;;;;;;;;;;5001716;28;20411;-87
2023/04/08 14:22:57;;;;;;;15.68;14.27;;;;;;;;;;5007029;28;20552;-89
2023/04/08 14:25:52;;;;;;;16.45;14.95;;;;;;;;;;5003033;28;20429;-91
2023/04/08 14:28:18;;;;;;;15.55;14.25;;;;;;;;;;5007806;28;20454;-88
2023/04/08 14:30:45;;;;;;;16.13;14.63;;;;;;;;;;5009815;28;20418;-89
2023/04/08 14:33:53;;;;;;;15.67;14.17;;;;;;;;;;5013346;28;20200;-92
2023/04/08 14:39:40;;;;;;;16.07;14.67;;;;;;;;;;5031867;28;20184;-91
2023/04/08 14:42:21;;;;;;;17.90;16.17;;;;;;;;;;5017477;28;20219;-88
2023/04/08 14:45:13;;;;;;;17.17;15.67;;;;;;;;;;5002366;28;20227;-90
2023/04/08 14:48:04;;;;;;;17.87;16.07;;;;;;;;;;5025165;28;20195;-91
2023/04/08 14:51:22;;;;;;;;;;;;;;;;;;;;;
2023/04/08 14:54:15;;;;;;;18.73;16.93;;;;;;;;;;5018259;28;20228;-93
2023/04/08 14:56:49;;;;;;;18.03;16.27;;;;;;;;;;5007607;28;20220;-90
2023/04/08 15:09:02;;;;;;;18.37;16.60;;;;;;;;;;4959247;28;20194;-91
2023/04/08 15:11:31;;;;;;;20.17;18.17;;;;;;;;;;4969361;28;20226;-91
2023/04/08 15:13:57;;;;;;;19.37;17.37;;;;;;;;;;4997575;28;20221;-89
2023/04/08 15:17:05;;;;;;;22.45;20.25;;;;;;;;;;4988358;28;20495;-89
2023/04/08 15:22:55;;;;;;;22.30;20.20;;;;;;;;;;4925788;29;20439;-92
2023/04/08 15:31:37;;;;;;;20.13;18.13;;;;;;;;;;4940172;29;20193;-91
2023/04/08 15:34:19;;;;;;;;;;;;;;;;;;;;;
2023/04/08 15:37:16;;;;;;;;;;;;;;;;;;;;;
2023/04/08 15:39:52;;;;;;;21.13;18.77;;;;;;;;;;4931820;29;20187;-93
2023/04/08 15:42:35;;;;;;;21.40;19.45;;;;;;;;;;4918807;29;20418;-91
2023/04/08 15:45:40;;;;;;;;;;;;;;;;;;;;;
2023/04/08 15:48:32;;;;;;;22.73;20.60;;;;;;;;;;4993171;28;20423;-92
2023/04/08 15:51:27;;;;;;;21.52;19.52;;;;;;;;;;4976909;28;20439;-93
2023/04/08 15:53:56;;;;;;;21.15;19.15;;;;;;;;;;4925525;29;20443;-91
2023/04/08 15:56:36;;;;;;;;;;;;;;;;;;;;;
2023/04/08 15:59:24;;;;;;;;;;;;;;;;;;;;;
2023/04/08 16:02:33;;;;;;;;;;;;;;;;;;;;;
2023/04/08 16:05:06;;;;;;;20.73;18.88;;;;;;;;;;5016124;28;20521;-89
2023/04/08 16:07:49;;;;;;;20.43;18.60;;;;;;;;;;4997070;28;20434;-90
2023/04/08 16:13:19;;;;;;;20.90;18.90;;;;;;;;;;5024266;28;20432;-89
2023/04/08 16:15:46;;;;;;;19.98;18.08;;;;;;;;;;5011707;28;20419;-91
2023/04/08 16:18:15;;;;;;;20.42;18.60;;;;;;;;;;4996639;28;20415;-92
2023/04/08 16:20:43;;;;;;;20.87;18.90;;;;;;;;;;4998705;28;20469;-90
2023/04/08 16:26:15;;;;;;;21.85;19.75;;;;;;;;;;5014467;28;20414;-91
2023/04/08 16:28:44;;;;;;;21.13;19.23;;;;;;;;;;4995877;28;20415;-86
2023/04/08 16:31:11;;;;;;;21.67;19.77;;;;;;;;;;5011120;28;20417;-87
2023/04/08 16:33:37;;;;;;;21.30;19.35;;;;;;;;;;5014484;28;20443;-86
2023/04/08 16:36:04;;;;;;;21.25;19.17;;;;;;;;;;5005013;28;20522;-86
2023/04/08 16:38:30;;;;;;;20.15;18.30;;;;;;;;;;5013981;28;20548;-87
2023/04/08 16:40:59;;;;;;;20.52;18.63;;;;;;;;;;5004799;28;20498;-87
2023/04/08 16:43:26;;;;;;;20.17;18.37;;;;;;;;;;4995572;28;20411;-86
2023/04/08 16:45:52;;;;;;;20.20;18.38;;;;;;;;;;4997654;28;20436;-86